Time;durP1;ratioP1;P1;durP2;ratioP2;P2;SDS_P1;SDS_P2;PMS_P1;PMS_P2;Temp;Humidity;BMP_temperature;BMP_pressure;BME280_temperature;BME280_humidity;BME280_pressure;Samples;Min_cycle;Max_cycle;Signal;HPM_P1;HPM_P2
2023/11/18 00:02:28;;;;;;;3.65;2.90;;;23.20;44.40;;;;;;6159812;28;81368;-60
2023/11/18 00:05:28;;;;;;;4.38;2.80;;;23.20;44.40;;;;;;6155503;28;83621;-59
2023/11/18 00:08:29;;;;;;;4.40;3.03;;;23.20;44.40;;;;;;6161326;28;81800;-60
2023/11/18 00:11:29;;;;;;;3.17;2.80;;;23.30;44.50;;;;;;6181785;28;80674;-61
2023/11/18 00:14:30;;;;;;;5.07;3.33;;;23.20;44.30;;;;;;6156272;28;87667;-60
2023/11/18 00:17:30;;;;;;;4.75;2.97;;;23.20;44.30;;;;;;6186029;28;85441;-61
2023/11/18 00:20:31;;;;;;;3.80;2.95;;;23.20;44.30;;;;;;6192483;28;82192;-61
2023/11/18 00:23:31;;;;;;;4.00;3.13;;;23.20;44.30;;;;;;6182610;28;80363;-60
2023/11/18 00:26:32;;;;;;;5.22;2.72;;;23.20;44.50;;;;;;6179896;28;80412;-59
2023/11/18 00:29:33;;;;;;;4.40;2.78;;;23.20;44.50;;;;;;6189083;28;80335;-62
2023/11/18 00:32:35;;;;;;;4.22;2.80;;;23.20;44.50;;;;;;6179135;28;82631;-61
2023/11/18 00:35:35;;;;;;;3.25;2.65;;;23.20;44.30;;;;;;6188685;28;81341;-61
2023/11/18 00:38:36;;;;;;;3.15;2.40;;;23.20;44.30;;;;;;6175554;28;81667;-60
2023/11/18 00:41:36;;;;;;;3.60;2.83;;;23.20;44.30;;;;;;6175199;28;81171;-61
2023/11/18 00:44:37;;;;;;;3.80;2.63;;;23.20;44.20;;;;;;6173800;28;81588;-61
2023/11/18 00:47:37;;;;;;;3.65;2.58;;;23.20;44.10;;;;;;6194851;28;81050;-60
2023/11/18 00:50:38;;;;;;;4.60;3.17;;;23.20;44.10;;;;;;6192204;28;81403;-69
2023/11/18 00:53:39;;;;;;;3.95;2.50;;;23.20;44.10;;;;;;6176080;28;80661;-67
2023/11/18 00:56:39;;;;;;;2.92;2.38;;;23.20;44.20;;;;;;6175195;28;80704;-72
2023/11/18 00:59:40;;;;;;;4.10;2.90;;;23.20;44.30;;;;;;6177311;28;81012;-69
2023/11/18 01:02:40;;;;;;;2.97;2.42;;;23.20;44.60;;;;;;6173195;28;82232;-74
2023/11/18 01:05:41;;;;;;;2.83;2.47;;;23.20;44.40;;;;;;6175457;28;80497;-73
2023/11/18 01:08:41;;;;;;;3.60;2.88;;;23.20;44.50;;;;;;6175566;28;82594;-59
2023/11/18 01:11:42;;;;;;;3.08;2.15;;;23.20;44.70;;;;;;6172071;28;82608;-60
2023/11/18 01:14:42;;;;;;;3.15;2.47;;;23.10;44.60;;;;;;6175353;28;86687;-59
2023/11/18 01:17:44;;;;;;;3.95;2.30;;;23.20;44.70;;;;;;6186777;28;80442;-58
2023/11/18 01:20:44;;;;;;;3.20;2.35;;;23.20;44.90;;;;;;6186139;28;83079;-58
2023/11/18 01:23:45;;;;;;;2.65;2.33;;;23.10;44.80;;;;;;6186287;28;80524;-58
2023/11/18 01:26:45;;;;;;;3.75;2.30;;;23.10;45.00;;;;;;6185797;28;81500;-63
2023/11/18 01:29:49;;;;;;;3.75;2.45;;;23.10;45.10;;;;;;6176631;28;81806;-62
2023/11/18 01:32:49;;;;;;;3.00;2.30;;;23.10;45.30;;;;;;6174697;28;80392;-62
2023/11/18 01:35:50;;;;;;;4.25;2.88;;;23.10;45.10;;;;;;6195454;28;81687;-61
2023/11/18 01:38:50;;;;;;;3.92;2.60;;;23.10;45.10;;;;;;6184845;28;83095;-62
2023/11/18 01:41:51;;;;;;;3.45;2.60;;;23.10;45.00;;;;;;6197005;28;81528;-62
2023/11/18 01:44:51;;;;;;;3.78;3.00;;;23.10;44.90;;;;;;6184412;28;81497;-61
2023/11/18 01:47:52;;;;;;;3.58;3.05;;;23.10;44.70;;;;;;6199105;28;80336;-62
2023/11/18 01:50:53;;;;;;;3.55;2.58;;;23.10;44.40;;;;;;6196973;28;81368;-59
2023/11/18 01:53:53;;;;;;;5.15;2.63;;;23.10;44.90;;;;;;6181159;28;80620;-60
2023/11/18 01:56:55;;;;;;;3.97;2.72;;;23.10;44.90;;;;;;6163512;28;88234;-61
2023/11/18 01:59:55;;;;;;;3.38;2.53;;;23.10;45.10;;;;;;6174308;28;81528;-61
2023/11/18 02:02:56;;;;;;;3.08;2.60;;;23.10;45.60;;;;;;6172120;28;82034;-67
2023/11/18 02:05:56;;;;;;;3.63;2.95;;;23.10;45.20;;;;;;6182287;28;83817;-68
2023/11/18 02:08:57;;;;;;;3.92;2.95;;;23.10;45.10;;;;;;6191675;28;82202;-66
2023/11/18 02:11:58;;;;;;;5.03;3.20;;;23.10;44.80;;;;;;6184228;28;86828;-69
2023/11/18 02:14:59;;;;;;;4.63;3.25;;;23.10;44.80;;;;;;6189060;28;81600;-68
2023/11/18 02:18:00;;;;;;;3.90;2.65;;;23.10;44.60;;;;;;6201594;28;83186;-67
2023/11/18 02:21:01;;;;;;;4.07;2.83;;;23.10;44.60;;;;;;6201532;28;81171;-68
2023/11/18 02:24:02;;;;;;;3.25;2.72;;;23.10;44.70;;;;;;6180723;28;81429;-59
2023/11/18 02:27:02;;;;;;;3.55;2.58;;;23.10;44.90;;;;;;6183656;28;90314;-58
2023/11/18 02:30:03;;;;;;;3.40;2.22;;;23.00;44.90;;;;;;6190582;28;80668;-59
2023/11/18 02:33:05;;;;;;;2.78;2.22;;;23.00;45.20;;;;;;6183731;28;82096;-58
2023/11/18 02:36:05;;;;;;;2.80;2.00;;;23.00;45.30;;;;;;6201255;28;82705;-59
2023/11/18 02:39:10;;;;;;;3.80;2.80;;;23.00;45.10;;;;;;6186108;28;81908;-59
2023/11/18 02:42:12;;;;;;;3.75;2.70;;;23.10;45.00;;;;;;6199817;28;80438;-67
2023/11/18 02:45:15;;;;;;;3.70;2.70;;;23.00;45.60;;;;;;6201259;28;88182;-74
2023/11/18 02:48:15;;;;;;;4.07;2.78;;;23.00;45.20;;;;;;6200554;28;82219;-76
2023/11/18 02:51:16;;;;;;;3.70;2.97;;;23.10;45.30;;;;;;6186814;28;81490;-69
2023/11/18 02:54:17;;;;;;;3.75;2.90;;;23.10;44.90;;;;;;6195565;28;80744;-68
2023/11/18 02:57:18;;;;;;;4.55;3.03;;;23.10;44.70;;;;;;6200748;28;80764;-69
2023/11/18 03:00:21;;;;;;;3.70;2.88;;;23.10;44.60;;;;;;6188447;28;83519;-68
2023/11/18 03:03:22;;;;;;;4.30;2.90;;;23.10;44.90;;;;;;6196181;28;80649;-67
2023/11/18 03:06:22;;;;;;;2.92;2.30;;;23.10;44.90;;;;;;6178694;28;87293;-67
2023/11/18 03:09:27;;;;;;;6.03;2.88;;;23.00;45.30;;;;;;6178913;28;80040;-66
2023/11/18 03:12:28;;;;;;;3.65;2.38;;;23.00;45.20;;;;;;6165600;28;81924;-66
2023/11/18 03:15:28;;;;;;;3.78;2.65;;;23.00;45.10;;;;;;6176169;28;80428;-67
2023/11/18 03:18:29;;;;;;;3.80;2.67;;;23.00;45.10;;;;;;6176912;28;80196;-64
2023/11/18 03:21:30;;;;;;;4.75;3.10;;;23.00;45.10;;;;;;6162285;28;81516;-62
2023/11/18 03:24:30;;;;;;;4.45;2.85;;;23.00;45.20;;;;;;6177424;28;80724;-60
2023/11/18 03:27:32;;;;;;;3.17;2.35;;;23.00;45.20;;;;;;6175341;28;81040;-61
2023/11/18 03:30:33;;;;;;;3.60;2.50;;;23.00;45.20;;;;;;6177242;28;80480;-61
2023/11/18 03:33:33;;;;;;;5.05;2.55;;;23.00;45.30;;;;;;6177721;28;80345;-62
2023/11/18 03:36:34;;;;;;;4.13;2.47;;;23.00;45.10;;;;;;6177235;28;80459;-73
2023/11/18 03:39:35;;;;;;;5.43;2.63;;;23.00;45.10;;;;;;6177358;28;81477;-71
2023/11/18 03:42:36;;;;;;;3.00;2.70;;;23.00;45.10;;;;;;6177997;28;80341;-71
2023/11/18 03:45:37;;;;;;;5.03;2.65;;;23.00;44.90;;;;;;6186778;28;83431;-72
2023/11/18 03:48:38;;;;;;;4.20;2.85;;;23.00;44.80;;;;;;6178734;28;81780;-72
2023/11/18 03:51:38;;;;;;;3.50;2.80;;;23.00;44.90;;;;;;6175227;28;81304;-75
2023/11/18 03:54:39;;;;;;;4.13;2.83;;;23.00;45.00;;;;;;6188301;28;82098;-60
2023/11/18 03:57:39;;;;;;;3.72;3.13;;;23.00;45.00;;;;;;6163463;28;80630;-60
2023/11/18 04:00:40;;;;;;;3.80;2.95;;;23.00;44.90;;;;;;6191901;28;80222;-60
2023/11/18 04:03:41;;;;;;;3.20;2.70;;;23.00;44.90;;;;;;6194589;28;82128;-60
2023/11/18 04:06:42;;;;;;;2.83;2.25;;;23.00;45.00;;;;;;6174056;28;80846;-61
2023/11/18 04:09:43;;;;;;;3.00;2.70;;;23.00;45.10;;;;;;6174939;28;85510;-62
2023/11/18 04:12:46;;;;;;;4.45;3.03;;;23.00;45.00;;;;;;6174112;28;82408;-60
2023/11/18 04:15:47;;;;;;;4.00;2.45;;;23.10;44.60;;;;;;6175054;28;83573;-60
2023/11/18 04:18:47;;;;;;;2.75;2.20;;;23.10;45.00;;;;;;6173939;28;86008;-60
2023/11/18 04:21:49;;;;;;;4.07;2.72;;;23.10;44.50;;;;;;6175921;28;80773;-62
2023/11/18 04:24:49;;;;;;;3.53;2.53;;;23.10;44.60;;;;;;6174774;28;80847;-60
2023/11/18 04:27:50;;;;;;;3.20;2.75;;;23.10;44.40;;;;;;6169846;28;81195;-61
2023/11/18 04:30:52;;;;;;;2.88;2.20;;;23.10;44.30;;;;;;6167155;28;80236;-60
2023/11/18 04:33:55;;;;;;;3.97;2.67;;;23.10;44.30;;;;;;6174883;28;80314;-59
2023/11/18 04:36:56;;;;;;;3.92;2.45;;;23.10;44.10;;;;;;6174196;28;81707;-58
2023/11/18 04:39:57;;;;;;;2.25;2.05;;;23.20;44.20;;;;;;6174054;28;81654;-61
2023/11/18 04:42:57;;;;;;;3.50;2.53;;;23.20;44.10;;;;;;6174621;28;82962;-58
2023/11/18 04:45:58;;;;;;;4.60;3.00;;;23.20;44.10;;;;;;6174885;28;80583;-60
2023/11/18 04:48:59;;;;;;;3.83;2.08;;;23.20;44.10;;;;;;6176008;28;80301;-61
2023/11/18 04:52:00;;;;;;;3.58;2.63;;;23.30;44.20;;;;;;6173104;28;82174;-59
2023/11/18 04:55:00;;;;;;;3.35;2.45;;;23.30;44.30;;;;;;6175487;28;80592;-60
2023/11/18 04:58:01;;;;;;;6.95;2.65;;;23.30;44.20;;;;;;6174018;28;80481;-62
2023/11/18 05:01:01;;;;;;;3.83;2.28;;;23.30;44.30;;;;;;6174208;28;80687;-59
2023/11/18 05:04:02;;;;;;;3.13;2.25;;;23.40;44.40;;;;;;6173620;28;81106;-60
2023/11/18 05:07:02;;;;;;;3.20;2.20;;;23.30;44.30;;;;;;6173579;28;80347;-60
2023/11/18 05:10:03;;;;;;;2.63;1.85;;;23.40;44.40;;;;;;6174020;28;80433;-59
2023/11/18 05:13:03;;;;;;;4.85;2.40;;;23.40;44.30;;;;;;6174148;28;81587;-65
2023/11/18 05:16:04;;;;;;;3.08;2.20;;;23.40;44.30;;;;;;6175234;28;80141;-64
2023/11/18 05:19:04;;;;;;;4.72;2.03;;;23.40;44.40;;;;;;6174417;28;80495;-60
2023/11/18 05:22:06;;;;;;;3.45;2.30;;;23.50;44.30;;;;;;6173756;28;80989;-60
2023/11/18 05:25:07;;;;;;;3.40;2.33;;;23.50;44.30;;;;;;6172476;28;80929;-61
2023/11/18 05:28:11;;;;;;;2.45;1.73;;;23.40;44.20;;;;;;6172652;28;80687;-59
2023/11/18 05:31:11;;;;;;;2.67;1.95;;;23.40;44.20;;;;;;6173074;28;81972;-60
2023/11/18 05:34:12;;;;;;;3.28;1.90;;;23.50;44.30;;;;;;6173472;28;79971;-60
2023/11/18 05:37:13;;;;;;;2.80;2.05;;;23.50;44.50;;;;;;6176065;28;81513;-59
2023/11/18 05:40:15;;;;;;;3.00;2.13;;;23.50;44.60;;;;;;6179079;28;80869;-59
2023/11/18 05:43:19;;;;;;;7.95;2.10;;;23.50;44.60;;;;;;6176627;28;80350;-60
2023/11/18 05:46:20;;;;;;;2.78;2.25;;;23.50;44.50;;;;;;6177758;28;80985;-61
2023/11/18 05:49:24;;;;;;;3.28;2.00;;;23.50;44.50;;;;;;6176699;28;81131;-62
2023/11/18 05:52:24;;;;;;;2.95;2.13;;;23.50;44.50;;;;;;6176541;28;83356;-60
2023/11/18 05:55:25;;;;;;;3.20;2.00;;;23.50;44.50;;;;;;6177759;28;85520;-60
2023/11/18 05:58:25;;;;;;;2.20;1.67;;;23.50;44.60;;;;;;6177061;28;80419;-60
2023/11/18 06:01:27;;;;;;;2.40;1.70;;;23.50;44.60;;;;;;6177110;28;81847;-60
2023/11/18 06:04:27;;;;;;;2.22;1.80;;;23.50;44.50;;;;;;6177091;28;80692;-60
2023/11/18 06:07:28;;;;;;;1.90;1.55;;;23.50;44.70;;;;;;6157335;28;80310;-59
2023/11/18 06:10:31;;;;;;;4.55;2.10;;;23.50;44.70;;;;;;6167955;28;81692;-62
2023/11/18 06:13:31;;;;;;;3.40;1.67;;;23.50;45.10;;;;;;6175776;28;82659;-65
2023/11/18 06:16:32;;;;;;;3.25;1.92;;;23.50;44.50;;;;;;6177319;28;80421;-57
2023/11/18 06:19:32;;;;;;;2.20;1.80;;;23.60;44.40;;;;;;6176169;28;81320;-59
2023/11/18 06:22:33;;;;;;;2.78;2.00;;;23.50;44.50;;;;;;6176911;28;81301;-71
2023/11/18 06:25:35;;;;;;;1.50;1.27;;;23.50;44.80;;;;;;6177000;28;82421;-70
2023/11/18 06:28:35;;;;;;;2.08;1.70;;;23.50;44.60;;;;;;6169192;28;80687;-76
2023/11/18 06:31:36;;;;;;;2.45;1.88;;;23.50;44.40;;;;;;6171978;28;80384;-73
2023/11/18 06:34:37;;;;;;;1.67;1.42;;;23.50;44.60;;;;;;6177329;28;81292;-70
2023/11/18 06:37:37;;;;;;;4.25;1.83;;;23.50;44.50;;;;;;6177163;28;80402;-74
2023/11/18 06:40:38;;;;;;;2.35;1.75;;;23.50;44.50;;;;;;6178191;28;80477;-60
2023/11/18 06:46:55;;;;;;;4.25;1.70;;;23.40;44.90;;;;;;6177717;28;80892;-59
2023/11/18 06:49:56;;;;;;;2.85;1.55;;;23.40;44.40;;;;;;6176834;28;80298;-60
2023/11/18 06:52:56;;;;;;;4.30;2.58;;;23.40;44.30;;;;;;6174776;28;80439;-61
2023/11/18 06:55:57;;;;;;;4.07;2.63;;;23.30;44.50;;;;;;6175059;28;81657;-60
2023/11/18 06:58:57;;;;;;;7.82;4.35;;;23.30;44.30;;;;;;6176088;28;80870;-58
2023/11/18 07:01:58;;;;;;;13.77;6.50;;;23.30;44.70;;;;;;6175015;28;80936;-61
2023/11/18 07:04:58;;;;;;;17.50;8.85;;;23.30;45.60;;;;;;6175101;28;86410;-59
2023/11/18 07:07:59;;;;;;;12.68;6.57;;;23.30;46.20;;;;;;6175120;28;81632;-60
2023/11/18 07:11:01;;;;;;;14.20;7.90;;;23.30;46.50;;;;;;6174248;28;80885;-58
2023/11/18 07:14:01;;;;;;;13.73;7.07;;;23.40;46.50;;;;;;6170987;28;82349;-60
2023/11/18 07:17:04;;;;;;;12.52;5.72;;;23.40;46.90;;;;;;6174463;28;80414;-57
2023/11/18 07:20:05;;;;;;;12.75;5.68;;;23.40;46.90;;;;;;6171842;28;81047;-57
2023/11/18 07:23:08;;;;;;;11.07;4.90;;;23.50;47.40;;;;;;6176857;28;80185;-59
2023/11/18 07:26:13;;;;;;;9.70;4.97;;;23.50;47.30;;;;;;6172654;28;80067;-57
2023/11/18 07:29:14;;;;;;;11.27;4.13;;;23.50;47.40;;;;;;6172730;28;80611;-58
2023/11/18 07:32:14;;;;;;;16.67;4.15;;;23.50;47.40;;;;;;6175644;28;80513;-60
2023/11/18 07:35:15;;;;;;;11.50;3.47;;;23.50;47.10;;;;;;6173634;28;80624;-59
2023/11/18 07:38:15;;;;;;;6.60;3.78;;;23.50;46.70;;;;;;6169173;28;85123;-59
2023/11/18 07:41:23;;;;;;;6.00;3.08;;;23.50;46.10;;;;;;6174091;28;81406;-58
2023/11/18 07:44:24;;;;;;;4.10;2.75;;;23.40;44.80;;;;;;6172963;28;85977;-58
2023/11/18 07:47:25;;;;;;;5.72;2.35;;;23.40;44.50;;;;;;6176626;28;80467;-58
2023/11/18 07:50:26;;;;;;;5.70;2.45;;;23.50;45.10;;;;;;6175659;28;80792;-60
2023/11/18 07:53:29;;;;;;;5.60;2.08;;;23.50;45.60;;;;;;6176384;28;80596;-58
2023/11/18 07:56:32;;;;;;;3.42;2.05;;;23.50;45.40;;;;;;6177390;28;80571;-60
2023/11/18 07:59:32;;;;;;;6.35;2.10;;;23.50;45.20;;;;;;6177369;28;80512;-58
2023/11/18 08:02:33;;;;;;;7.25;1.80;;;23.60;45.40;;;;;;6176579;28;82008;-57
2023/11/18 08:05:34;;;;;;;3.25;1.90;;;23.60;45.30;;;;;;6176361;28;81059;-58
2023/11/18 08:08:34;;;;;;;4.18;1.67;;;23.50;44.80;;;;;;6171410;28;82523;-58
2023/11/18 08:11:36;;;;;;;4.45;1.85;;;23.50;44.30;;;;;;6170201;28;83247;-58
2023/11/18 08:14:37;;;;;;;2.17;1.65;;;23.50;44.20;;;;;;6174323;28;80668;-58
2023/11/18 08:17:37;;;;;;;1.88;1.40;;;23.40;44.30;;;;;;6173406;28;80477;-53
2023/11/18 08:20:38;;;;;;;3.33;1.85;;;23.40;44.50;;;;;;6171109;28;81305;-56
2023/11/18 08:23:38;;;;;;;4.70;2.03;;;23.40;44.60;;;;;;6169390;28;80406;-58
2023/11/18 08:26:39;;;;;;;2.45;1.50;;;23.50;44.60;;;;;;6173996;28;80573;-50
2023/11/18 08:29:39;;;;;;;3.00;1.70;;;23.50;44.70;;;;;;6174484;28;80635;-60
2023/11/18 08:32:40;;;;;;;4.45;1.60;;;23.50;44.70;;;;;;6174319;28;80520;-61
2023/11/18 08:35:42;;;;;;;4.90;1.58;;;23.50;44.60;;;;;;6175617;28;80453;-60
2023/11/18 08:38:44;;;;;;;2.42;1.58;;;23.50;44.60;;;;;;6174792;28;80548;-62
2023/11/18 08:41:45;;;;;;;2.85;1.48;;;23.50;44.50;;;;;;6172337;28;80616;-60
2023/11/18 08:44:48;;;;;;;6.22;1.30;;;23.50;44.40;;;;;;6168999;28;81784;-61
2023/11/18 08:47:48;;;;;;;2.70;1.90;;;23.40;44.60;;;;;;6168839;28;81888;-66
2023/11/18 08:50:49;;;;;;;2.25;1.35;;;23.40;44.50;;;;;;6174974;28;80664;-62
2023/11/18 08:53:50;;;;;;;2.22;1.75;;;23.40;44.40;;;;;;6174598;28;80769;-63
2023/11/18 08:56:51;;;;;;;3.40;1.67;;;23.40;44.60;;;;;;6174388;28;81040;-61
2023/11/18 08:59:51;;;;;;;2.45;1.40;;;23.40;44.70;;;;;;6175008;28;80813;-60
2023/11/18 09:02:52;;;;;;;7.68;1.85;;;23.40;44.60;;;;;;6172647;28;80561;-72
2023/11/18 09:05:59;;;;;;;8.15;1.98;;;23.40;44.60;;;;;;6169005;28;81606;-57
2023/11/18 09:09:00;;;;;;;4.30;1.45;;;23.40;44.90;;;;;;6164647;28;81855;-55
2023/11/18 09:12:02;;;;;;;3.40;1.70;;;23.40;45.00;;;;;;6173338;28;81460;-56
2023/11/18 09:15:03;;;;;;;6.47;2.03;;;23.40;45.10;;;;;;6175556;28;82974;-60
2023/11/18 09:18:04;;;;;;;3.67;1.52;;;23.40;44.80;;;;;;6174838;28;80279;-57
2023/11/18 09:21:06;;;;;;;5.40;1.80;;;23.40;44.90;;;;;;6175303;28;81019;-57
2023/11/18 09:24:11;;;;;;;3.80;2.10;;;23.40;44.60;;;;;;6171794;28;81673;-60
2023/11/18 09:27:12;;;;;;;3.17;2.13;;;23.40;44.60;;;;;;6174212;28;82757;-60
2023/11/18 09:30:13;;;;;;;4.28;2.00;;;23.50;44.80;;;;;;6174257;28;80389;-60
2023/11/18 09:33:17;;;;;;;6.20;2.17;;;23.50;44.50;;;;;;6172754;28;80923;-62
2023/11/18 09:36:18;;;;;;;6.10;2.10;;;23.50;44.50;;;;;;6176015;28;80220;-59
2023/11/18 09:39:29;;;;;;;4.55;1.63;;;23.60;44.50;;;;;;6161141;28;83595;-59
2023/11/18 09:42:30;;;;;;;3.70;1.80;;;23.60;44.50;;;;;;6176451;28;80817;-58
2023/11/18 09:45:30;;;;;;;2.85;1.88;;;23.60;44.40;;;;;;6177148;28;80528;-59
2023/11/18 09:48:40;;;;;;;2.25;1.75;;;23.70;44.30;;;;;;6175775;28;80817;-63
2023/11/18 09:51:41;;;;;;;3.58;1.90;;;23.70;44.30;;;;;;6174416;28;80811;-60
2023/11/18 09:54:41;;;;;;;2.63;1.80;;;23.70;44.20;;;;;;6175659;28;80682;-58
2023/11/18 09:57:42;;;;;;;4.43;1.88;;;23.70;44.10;;;;;;6174435;28;80475;-58
2023/11/18 10:00:43;;;;;;;4.70;1.50;;;23.70;44.10;;;;;;6151185;28;84956;-64
2023/11/18 10:03:45;;;;;;;2.47;1.92;;;23.80;44.00;;;;;;6151903;28;80620;-63
2023/11/18 10:06:46;;;;;;;5.55;2.60;;;23.80;44.00;;;;;;6147926;28;81539;-64
2023/11/18 10:09:48;;;;;;;3.75;2.40;;;23.80;44.30;;;;;;6151040;28;80086;-64
2023/11/18 10:12:52;;;;;;;4.15;2.55;;;23.80;44.20;;;;;;6149319;28;80738;-64
2023/11/18 10:15:52;;;;;;;5.45;3.35;;;23.80;45.00;;;;;;6147837;28;85928;-65
2023/11/18 10:18:55;;;;;;;5.18;3.25;;;23.80;44.70;;;;;;6175435;28;80868;-65
2023/11/18 10:21:56;;;;;;;4.90;3.13;;;23.80;44.90;;;;;;6173205;28;81631;-64
2023/11/18 10:24:57;;;;;;;8.40;3.42;;;23.90;45.00;;;;;;6173518;28;82366;-61
2023/11/18 10:27:57;;;;;;;5.03;3.60;;;23.80;45.70;;;;;;6177226;28;81456;-61
2023/11/18 10:30:58;;;;;;;7.53;3.85;;;23.80;45.50;;;;;;6172642;28;80597;-63
2023/11/18 10:33:58;;;;;;;6.07;4.00;;;23.80;46.80;;;;;;6180321;28;80560;-63
2023/11/18 10:37:00;;;;;;;7.68;4.35;;;23.80;48.10;;;;;;6177597;28;80657;-61
2023/11/18 10:40:01;;;;;;;4.93;3.33;;;23.80;49.20;;;;;;6180149;28;80520;-64
2023/11/18 10:43:01;;;;;;;6.60;3.33;;;23.80;50.70;;;;;;6180111;28;80593;-63
2023/11/18 10:46:03;;;;;;;6.78;3.03;;;23.70;51.30;;;;;;6180387;28;80435;-62
2023/11/18 10:49:09;;;;;;;5.35;3.35;;;23.70;49.60;;;;;;6180576;28;80256;-62
2023/11/18 10:52:10;;;;;;;12.60;4.38;;;23.70;50.60;;;;;;6165127;28;82673;-61
2023/11/18 10:55:19;;;;;;;6.13;3.53;;;23.70;50.20;;;;;;6179743;28;80594;-61
2023/11/18 10:58:19;;;;;;;6.35;3.25;;;23.70;50.80;;;;;;6174048;28;82838;-66
2023/11/18 11:01:20;;;;;;;7.72;3.75;;;23.70;51.00;;;;;;6154606;28;80099;-69
2023/11/18 11:04:22;;;;;;;7.88;3.80;;;23.70;51.50;;;;;;6177139;28;80633;-69
2023/11/18 11:07:23;;;;;;;6.05;3.22;;;23.60;51.00;;;;;;6178034;28;80640;-70
2023/11/18 11:10:28;;;;;;;5.80;3.72;;;23.60;51.10;;;;;;6177366;28;80943;-70
2023/11/18 11:13:29;;;;;;;3.63;2.72;;;23.50;51.10;;;;;;6178280;28;80908;-68
2023/11/18 11:16:33;;;;;;;4.65;3.20;;;23.50;51.00;;;;;;6168089;28;81512;-69
2023/11/18 11:19:44;;;;;;;3.58;3.00;;;23.50;51.00;;;;;;6164961;28;80204;-68
2023/11/18 11:22:45;;;;;;;3.72;2.97;;;23.40;51.00;;;;;;6145822;28;81595;-67
2023/11/18 11:25:46;;;;;;;7.03;3.45;;;23.40;51.80;;;;;;6153844;28;82669;-68
2023/11/18 11:28:46;;;;;;;7.43;3.28;;;23.30;51.00;;;;;;6156480;28;85412;-67
2023/11/18 11:31:47;;;;;;;10.07;4.45;;;23.20;49.10;;;;;;6168497;28;83083;-66
2023/11/18 11:34:47;;;;;;;6.38;3.50;;;23.10;48.40;;;;;;6172509;28;81507;-67
2023/11/18 11:37:48;;;;;;;6.38;3.78;;;23.00;47.70;;;;;;6172867;28;80609;-66
2023/11/18 11:40:49;;;;;;;4.95;3.40;;;23.00;47.50;;;;;;6163528;28;80881;-64
2023/11/18 11:43:50;;;;;;;7.68;3.38;;;22.90;47.80;;;;;;6158013;28;81440;-67
2023/11/18 11:46:52;;;;;;;5.72;3.47;;;22.80;47.20;;;;;;6169342;28;81059;-64
2023/11/18 11:49:55;;;;;;;6.75;4.25;;;22.80;47.20;;;;;;6168527;28;80511;-70
2023/11/18 11:52:56;;;;;;;7.22;3.60;;;22.80;47.60;;;;;;6171207;28;80350;-71
2023/11/18 11:56:05;;;;;;;3.83;3.40;;;22.80;47.10;;;;;;6162849;28;83260;-68
2023/11/18 11:59:11;;;;;;;5.13;3.35;;;22.80;48.10;;;;;;6164142;28;83390;-71
2023/11/18 12:02:15;;;;;;;4.37;3.40;;;22.80;48.70;;;;;;6163346;28;80996;-69
2023/11/18 12:05:18;;;;;;;6.95;3.78;;;22.90;49.80;;;;;;6169658;28;81313;-61
2023/11/18 12:08:21;;;;;;;27.30;11.38;;;22.90;50.10;;;;;;6159932;28;80873;-60
2023/11/18 12:11:22;;;;;;;34.17;11.57;;;23.00;51.10;;;;;;6150082;28;83310;-68
2023/11/18 12:17:24;;;;;;;26.05;9.90;;;23.10;52.70;;;;;;6158593;28;82805;-64
2023/11/18 12:20:24;;;;;;;29.65;9.88;;;23.10;53.30;;;;;;6171563;28;83664;-62
2023/11/18 12:23:25;;;;;;;18.95;8.50;;;23.10;54.00;;;;;;6165909;28;81673;-64
2023/11/18 12:26:25;;;;;;;20.92;7.53;;;23.20;54.30;;;;;;6161239;28;84017;-65
2023/11/18 12:29:26;;;;;;;15.00;6.68;;;23.20;55.10;;;;;;6170954;28;80960;-63
2023/11/18 12:32:26;;;;;;;16.17;6.50;;;23.20;55.20;;;;;;6170191;28;81156;-66
2023/11/18 12:35:30;;;;;;;16.08;6.22;;;23.20;55.10;;;;;;6156569;28;81814;-63
2023/11/18 12:38:34;;;;;;;10.18;5.40;;;23.30;55.50;;;;;;6168486;28;81892;-66
2023/11/18 12:41:41;;;;;;;10.90;4.90;;;23.30;55.30;;;;;;6162171;28;81509;-71
2023/11/18 12:44:41;;;;;;;9.98;4.78;;;23.30;55.90;;;;;;6161959;28;80566;-69
2023/11/18 12:47:42;;;;;;;34.88;5.00;;;23.30;56.40;;;;;;6164478;28;80943;-63
2023/11/18 12:50:45;;;;;;;13.63;5.63;;;23.30;57.50;;;;;;6161195;28;83835;-64
2023/11/18 12:53:46;;;;;;;12.88;4.55;;;23.30;57.50;;;;;;6164029;28;80750;-67
2023/11/18 12:56:48;;;;;;;12.43;4.68;;;23.30;58.60;;;;;;6173586;28;80717;-69
2023/11/18 12:59:49;;;;;;;13.63;4.53;;;23.40;58.90;;;;;;6170013;28;81411;-70
2023/11/18 13:02:52;;;;;;;12.77;4.65;;;23.40;58.90;;;;;;6165527;28;83234;-68
2023/11/18 13:05:53;;;;;;;10.63;4.45;;;23.40;58.90;;;;;;6174037;28;80553;-69
2023/11/18 13:08:54;;;;;;;11.60;4.10;;;23.50;59.60;;;;;;6173867;28;81644;-68
2023/11/18 13:11:56;;;;;;;10.57;4.43;;;23.50;59.70;;;;;;6172557;28;84769;-67
2023/11/18 13:14:56;;;;;;;11.82;4.43;;;23.50;59.60;;;;;;6172109;28;91058;-67
2023/11/18 13:17:57;;;;;;;40.35;10.75;;;23.50;59.00;;;;;;6169750;28;81147;-67
2023/11/18 13:20:57;;;;;;;76.93;20.40;;;23.60;59.00;;;;;;6155974;28;84418;-70
2023/11/18 13:23:58;;;;;;;95.63;26.67;;;23.70;61.20;;;;;;6163102;28;83352;-68
2023/11/18 13:26:58;;;;;;;113.13;33.35;;;23.70;60.80;;;;;;6143253;28;83210;-70
2023/11/18 13:29:59;;;;;;;111.15;35.60;;;23.70;61.90;;;;;;6157432;28;83264;-72
2023/11/18 13:32:59;;;;;;;126.13;38.58;;;23.80;61.00;;;;;;6167693;28;84115;-71
2023/11/18 13:36:00;;;;;;;157.63;45.63;;;23.80;60.80;;;;;;6158833;28;84478;-70
2023/11/18 13:39:00;;;;;;;181.70;54.90;;;23.80;61.80;;;;;;6172052;28;82936;-73
2023/11/18 13:42:01;;;;;;;174.05;56.53;;;23.90;62.20;;;;;;6164045;28;83565;-64
2023/11/18 13:45:02;;;;;;;181.63;49.58;;;23.90;61.90;;;;;;6146930;28;84525;-61
2023/11/18 13:48:04;;;;;;;138.25;44.38;;;23.90;60.80;;;;;;6150846;28;82786;-62
2023/11/18 13:51:08;;;;;;;112.22;34.70;;;23.90;59.20;;;;;;6147625;28;83831;-62
2023/11/18 13:54:09;;;;;;;95.78;30.70;;;23.80;57.10;;;;;;6145802;28;82984;-63
2023/11/18 13:57:09;;;;;;;75.30;24.70;;;23.70;55.10;;;;;;6148094;28;83263;-59
2023/11/18 14:00:16;;;;;;;63.45;20.80;;;23.70;52.80;;;;;;6161591;28;82901;-61
2023/11/18 14:03:17;;;;;;;61.38;19.25;;;23.60;51.80;;;;;;6158175;28;85058;-62
2023/11/18 14:06:17;;;;;;;50.13;16.08;;;23.60;50.70;;;;;;6162132;28;84819;-62
2023/11/18 14:09:21;;;;;;;42.95;14.55;;;23.60;48.90;;;;;;6153222;28;83409;-62
2023/11/18 14:12:22;;;;;;;44.63;15.88;;;23.60;49.50;;;;;;6145954;28;83705;-61
2023/11/18 14:15:23;;;;;;;51.50;16.25;;;23.50;50.00;;;;;;6167327;28;84369;-60
2023/11/18 14:18:23;;;;;;;47.35;14.35;;;23.50;50.60;;;;;;6165098;28;89039;-65
2023/11/18 14:21:25;;;;;;;40.05;14.18;;;23.50;50.40;;;;;;6168001;28;83124;-63
2023/11/18 14:24:28;;;;;;;40.15;12.85;;;23.50;49.60;;;;;;6163944;28;86320;-61
2023/11/18 14:27:29;;;;;;;32.95;12.40;;;23.40;50.30;;;;;;6160225;28;88889;-61
2023/11/18 14:30:30;;;;;;;37.60;13.10;;;23.40;50.60;;;;;;6164731;28;84430;-62
2023/11/18 14:33:33;;;;;;;33.35;11.55;;;23.40;50.80;;;;;;6165982;28;85854;-64
2023/11/18 14:36:33;;;;;;;33.40;10.35;;;23.50;51.10;;;;;;6159708;28;87725;-58
2023/11/18 14:39:36;;;;;;;28.75;11.27;;;23.50;50.90;;;;;;6171238;28;83047;-59
2023/11/18 14:42:37;;;;;;;31.10;10.18;;;23.50;51.20;;;;;;6151962;28;83098;-60
2023/11/18 14:45:37;;;;;;;25.88;10.25;;;23.50;51.60;;;;;;6161851;28;83857;-61
2023/11/18 14:48:38;;;;;;;21.98;9.00;;;23.50;51.60;;;;;;6173121;28;83139;-60
2023/11/18 14:51:40;;;;;;;23.27;9.55;;;23.40;51.50;;;;;;6171773;28;82750;-63
2023/11/18 14:54:40;;;;;;;29.58;11.23;;;23.40;51.60;;;;;;6154121;28;81682;-61
2023/11/18 14:57:41;;;;;;;25.83;9.60;;;23.40;52.10;;;;;;6153552;28;83966;-60
2023/11/18 15:00:42;;;;;;;24.90;9.48;;;23.50;51.80;;;;;;6157380;28;82845;-60
2023/11/18 15:03:43;;;;;;;19.88;8.65;;;23.40;51.90;;;;;;6152796;28;87792;-62
2023/11/18 15:06:43;;;;;;;22.23;9.57;;;23.40;52.10;;;;;;6156166;28;82870;-61
2023/11/18 15:09:44;;;;;;;16.85;7.88;;;23.40;51.20;;;;;;6154329;28;81479;-62
2023/11/18 15:12:44;;;;;;;15.57;7.00;;;23.40;51.40;;;;;;6155888;28;80981;-61
2023/11/18 15:15:47;;;;;;;11.85;6.45;;;23.30;51.10;;;;;;6153304;28;80709;-61
2023/11/18 15:18:47;;;;;;;17.73;7.13;;;23.30;51.00;;;;;;6154837;28;81863;-60
2023/11/18 15:21:48;;;;;;;18.65;7.10;;;23.40;51.00;;;;;;6154359;28;81341;-60
2023/11/18 15:24:49;;;;;;;18.08;7.13;;;23.30;50.90;;;;;;6149917;28;83473;-61
2023/11/18 15:27:50;;;;;;;17.95;6.72;;;23.30;50.40;;;;;;6152526;28;81332;-63
2023/11/18 15:30:50;;;;;;;10.82;5.10;;;23.30;50.70;;;;;;6153431;28;82121;-60
2023/11/18 15:33:51;;;;;;;10.93;5.90;;;23.30;50.20;;;;;;6156097;28;82365;-63
2023/11/18 15:36:52;;;;;;;13.40;6.18;;;23.30;50.40;;;;;;6153599;28;81762;-67
2023/11/18 15:39:52;;;;;;;13.73;6.22;;;23.30;50.50;;;;;;6151389;28;81692;-63
2023/11/18 15:42:53;;;;;;;10.63;5.97;;;23.30;50.30;;;;;;6157034;28;81688;-61
2023/11/18 15:45:56;;;;;;;12.95;6.15;;;23.30;50.50;;;;;;6156863;28;81980;-64